createdAt,value
2024-03-10T00:00:21.435Z,100153.90
2024-03-10T00:02:52.750Z,100156.55
2024-03-10T00:05:24.282Z,100154.95
2024-03-10T00:07:55.601Z,100153.20
2024-03-10T00:10:27.135Z,100147.16
2024-03-10T00:12:58.427Z,100145.87
2024-03-10T00:15:29.588Z,100146.04
2024-03-10T00:18:00.741Z,100145.47
2024-03-10T00:20:32.152Z,100149.65
2024-03-10T00:23:03.814Z,100152.17
2024-03-10T00:25:34.978Z,100150.59
2024-03-10T00:28:07.353Z,100144.80
2024-03-10T00:30:38.494Z,100138.85
2024-03-10T00:33:09.697Z,100139.13
2024-03-10T00:35:40.773Z,100137.34
2024-03-10T00:38:11.928Z,100125.33
2024-03-10T00:40:42.870Z,100121.85
2024-03-10T00:43:13.801Z,100118.23
2024-03-10T00:45:45.125Z,100113.82
2024-03-10T00:48:16.990Z,100110.59
2024-03-10T00:50:48.967Z,100107.39
2024-03-10T00:53:20.519Z,100102.72
2024-03-10T00:55:52.303Z,100100.70
2024-03-10T00:58:23.584Z,100097.70
2024-03-10T01:00:54.550Z,100089.02
2024-03-10T01:03:25.541Z,100087.29
2024-03-10T01:05:56.381Z,100085.78
2024-03-10T01:08:27.448Z,100078.88
2024-03-10T01:10:58.557Z,100071.60
2024-03-10T01:13:30.379Z,100065.35
2024-03-10T01:16:01.718Z,100048.35
2024-03-10T01:18:33.078Z,100035.76
2024-03-10T01:21:04.544Z,100032.17
2024-03-10T01:23:35.362Z,100030.00
2024-03-10T01:26:07.086Z,100025.59
2024-03-10T01:28:39.037Z,100022.31
2024-03-10T01:31:10.982Z,100012.76
2024-03-10T01:33:42.290Z,100000.16
2024-03-10T01:36:13.747Z,99988.92
2024-03-10T01:38:44.668Z,99970.92
2024-03-10T01:41:15.623Z,99966.13
2024-03-10T01:43:49.084Z,99955.75
2024-03-10T01:46:20.135Z,99949.84
2024-03-10T01:48:52.086Z,99943.98
2024-03-10T01:51:24.049Z,99939.29
2024-03-10T01:53:56.475Z,99937.27
2024-03-10T01:56:29.790Z,99925.15
2024-03-10T01:59:01.186Z,99909.92
2024-03-10T02:01:33.619Z,99901.77
2024-03-10T02:04:09.985Z,99903.06
2024-03-10T02:06:44.280Z,99908.68
2024-03-10T02:09:15.315Z,99928.28
2024-03-10T02:11:46.752Z,99927.18
2024-03-10T02:14:17.654Z,99905.04
2024-03-10T02:16:50.907Z,99881.50
2024-03-10T02:19:22.438Z,99867.16
2024-03-10T02:21:53.739Z,99857.61
2024-03-10T02:24:30.220Z,99837.86
2024-03-10T02:27:02.028Z,99835.30
2024-03-10T02:29:51.016Z,99828.84
2024-03-10T02:32:36.224Z,99813.80
2024-03-10T02:35:23.152Z,99800.49
2024-03-10T02:38:07.943Z,99800.52
2024-03-10T02:40:52.794Z,99791.85
2024-03-10T02:43:38.057Z,99779.73
2024-03-10T02:46:22.857Z,99781.63
2024-03-10T02:48:55.084Z,99770.70
2024-03-10T02:51:27.757Z,99756.67
2024-03-10T02:53:58.729Z,99746.89
2024-03-10T02:56:29.969Z,99748.44
2024-03-10T02:59:01.133Z,99751.31
2024-03-10T03:01:32.690Z,99749.63
2024-03-10T03:04:05.809Z,99740.95
2024-03-10T03:06:37.625Z,99730.04
2024-03-10T03:09:09.344Z,99727.05
2024-03-10T03:11:40.210Z,99724.34
2024-03-10T03:14:14.542Z,99729.58
2024-03-10T03:16:47.630Z,99724.34
2024-03-10T03:19:19.206Z,99713.27
2024-03-10T03:21:50.102Z,99715.98
2024-03-10T03:24:21.201Z,99713.98
2024-03-10T03:26:53.421Z,99719.91
2024-03-10T03:29:25.031Z,99728.09
2024-03-10T03:31:56.537Z,99726.77
2024-03-10T03:34:27.930Z,99712.44
2024-03-10T03:36:59.278Z,99698.05
2024-03-10T03:39:30.217Z,99699.15
2024-03-10T03:42:01.114Z,99707.39
2024-03-10T03:44:32.814Z,99709.15
2024-03-10T03:47:03.824Z,99707.84
2024-03-10T03:49:35.187Z,99705.36
2024-03-10T03:52:07.921Z,99694.13
2024-03-10T03:54:41.108Z,99692.73
2024-03-10T03:57:12.663Z,99693.17
2024-03-10T03:59:44.378Z,99686.24
2024-03-10T04:02:15.378Z,99675.03
2024-03-10T04:04:46.610Z,99669.14
2024-03-10T04:07:17.724Z,99660.83
2024-03-10T04:09:48.608Z,99656.27
2024-03-10T04:12:19.700Z,99660.75
2024-03-10T04:14:50.770Z,99661.05
2024-03-10T04:17:21.952Z,99659.52
2024-03-10T04:19:52.771Z,99660.29
2024-03-10T04:22:24.324Z,99651.01
2024-03-10T04:24:56.429Z,99642.17
2024-03-10T04:27:29.308Z,99637.06
2024-03-10T04:30:00.447Z,99631.66
2024-03-10T04:32:31.950Z,99630.10
2024-03-10T04:35:02.877Z,99623.06
2024-03-10T04:37:33.804Z,99608.98
2024-03-10T04:40:07.376Z,99600.66
2024-03-10T04:42:39.761Z,99601.17
2024-03-10T04:45:13.215Z,99604.03
2024-03-10T04:47:44.182Z,99598.52
2024-03-10T04:50:15.390Z,99596.42
2024-03-10T04:52:46.404Z,99587.39
2024-03-10T04:55:17.825Z,99584.75
2024-03-10T04:57:48.695Z,99587.02
2024-03-10T05:00:21.177Z,99585.03
2024-03-10T05:02:52.678Z,99581.70
2024-03-10T05:05:23.967Z,99569.40
2024-03-10T05:07:55.144Z,99558.47
2024-03-10T05:10:25.988Z,99551.55
2024-03-10T05:12:57.470Z,99545.51
2024-03-10T05:15:28.374Z,99546.13
2024-03-10T05:17:59.444Z,99541.73
2024-03-10T05:20:30.780Z,99537.25
2024-03-10T05:23:01.987Z,99525.25
2024-03-10T05:25:33.163Z,99516.70
2024-03-10T05:28:04.420Z,99512.77
2024-03-10T05:30:35.404Z,99511.98
2024-03-10T05:33:08.073Z,99505.95
2024-03-10T05:35:40.189Z,99505.65
2024-03-10T05:38:11.148Z,99512.91
2024-03-10T05:40:42.376Z,99514.87
2024-03-10T05:43:13.174Z,99518.98
2024-03-10T05:45:43.996Z,99520.40
2024-03-10T05:48:16.786Z,99521.39
2024-03-10T05:50:47.919Z,99520.45
2024-03-10T05:53:19.349Z,99520.54
2024-03-10T05:55:50.522Z,99516.98
2024-03-10T05:58:22.654Z,99513.27
2024-03-10T06:00:53.689Z,99509.77
2024-03-10T06:03:24.953Z,99498.92
2024-03-10T06:05:57.894Z,99490.34
2024-03-10T06:08:30.037Z,99494.21
2024-03-10T06:11:01.180Z,99496.06
2024-03-10T06:13:32.417Z,99492.13
2024-03-10T06:16:04.175Z,99488.93
2024-03-10T06:18:55.754Z,99486.38
2024-03-10T06:21:42.324Z,99477.29
2024-03-10T06:24:27.597Z,99468.69
2024-03-10T06:26:59.105Z,99466.61
2024-03-10T06:29:30.209Z,99460.48
2024-03-10T06:32:01.495Z,99453.02
2024-03-10T06:34:33.267Z,99448.52
2024-03-10T06:37:04.182Z,99439.86
2024-03-10T06:39:35.054Z,99433.38
2024-03-10T06:42:07.915Z,99428.89
2024-03-10T06:44:39.040Z,99424.79
2024-03-10T06:47:10.667Z,99417.35
2024-03-10T06:49:41.950Z,99416.05
2024-03-10T06:52:13.070Z,99423.55
2024-03-10T06:54:44.359Z,99423.60
2024-03-10T06:57:15.481Z,99416.16
2024-03-10T06:59:46.594Z,99417.33
2024-03-10T07:02:17.751Z,99411.55
2024-03-10T07:04:48.876Z,99403.96
2024-03-10T07:07:19.839Z,99396.38
2024-03-10T07:09:51.697Z,99389.48
2024-03-10T07:12:22.943Z,99387.19
2024-03-10T07:14:53.862Z,99388.09
2024-03-10T07:17:25.842Z,99383.48
2024-03-10T07:19:56.871Z,99375.66
2024-03-10T07:22:28.210Z,99368.70
2024-03-10T07:24:59.105Z,99365.09
2024-03-10T07:27:30.230Z,99370.53
2024-03-10T07:30:00.949Z,99370.27
2024-03-10T07:32:32.125Z,99363.37
2024-03-10T07:35:04.958Z,99355.34
2024-03-10T07:37:36.082Z,99352.56
2024-03-10T07:40:16.623Z,99347.63
2024-03-10T07:42:47.973Z,99339.38
2024-03-10T07:45:19.886Z,99341.41
2024-03-10T07:47:51.802Z,99340.99
2024-03-10T07:50:23.231Z,99344.30
2024-03-10T07:52:54.100Z,99351.43
2024-03-10T07:55:25.832Z,99389.41
2024-03-10T07:57:56.560Z,99415.78
2024-03-10T08:00:28.269Z,99417.83
2024-03-10T08:02:59.145Z,99425.23
2024-03-10T08:05:31.299Z,99427.26
2024-03-10T08:08:02.411Z,99430.89
2024-03-10T08:10:33.818Z,99440.65
2024-03-10T08:13:05.463Z,99429.64
2024-03-10T08:15:37.284Z,99429.48
2024-03-10T08:18:09.180Z,99431.00
2024-03-10T08:20:42.138Z,99432.41
2024-03-10T08:23:13.660Z,99429.27
2024-03-10T08:25:46.717Z,99415.79
2024-03-10T08:28:21.148Z,99405.05
2024-03-10T08:30:52.602Z,99411.54
2024-03-10T08:33:23.926Z,99416.45
2024-03-10T08:35:55.602Z,99427.22
2024-03-10T08:38:27.675Z,99429.69
2024-03-10T08:40:59.146Z,99430.35
2024-03-10T08:43:30.843Z,99428.20
2024-03-10T08:46:03.857Z,99425.58
2024-03-10T08:48:36.830Z,99422.90
2024-03-10T08:51:08.260Z,99420.71
2024-03-10T08:53:40.620Z,99409.74
2024-03-10T08:56:11.707Z,99410.46
2024-03-10T08:58:43.027Z,99408.60
2024-03-10T09:01:14.391Z,99409.34
2024-03-10T09:03:45.180Z,99414.09
2024-03-10T09:06:16.187Z,99410.04
2024-03-10T09:08:47.646Z,99398.95
2024-03-10T09:11:19.308Z,99395.82
2024-03-10T09:13:50.453Z,99395.20
2024-03-10T09:16:22.331Z,99398.02
2024-03-10T09:18:53.744Z,99399.56
2024-03-10T09:21:25.564Z,99405.06
2024-03-10T09:23:56.715Z,99405.34
2024-03-10T09:26:28.984Z,99412.36
2024-03-10T09:29:02.519Z,99413.27
2024-03-10T09:31:33.511Z,99407.81
2024-03-10T09:34:05.069Z,99403.21
2024-03-10T09:36:36.343Z,99406.64
2024-03-10T09:39:13.802Z,99408.81
2024-03-10T09:41:48.527Z,99401.60
2024-03-10T09:44:20.925Z,99377.64
2024-03-10T09:46:52.475Z,99343.80
2024-03-10T09:49:24.755Z,99371.08
2024-03-10T09:51:58.636Z,99381.39
2024-03-10T09:54:29.773Z,99400.48
2024-03-10T09:57:00.754Z,99406.35
2024-03-10T09:59:43.521Z,99390.50
2024-03-10T10:02:27.494Z,99398.98
2024-03-10T10:05:08.086Z,99440.21
2024-03-10T10:07:39.233Z,99443.05
2024-03-10T10:10:11.493Z,99444.66
2024-03-10T10:12:48.620Z,99441.79
2024-03-10T10:15:22.964Z,99441.73
2024-03-10T10:18:01.864Z,99456.20
2024-03-10T10:20:34.528Z,99456.05
2024-03-10T10:23:08.312Z,99444.34
2024-03-10T10:25:39.483Z,99454.02
2024-03-10T10:28:14.680Z,99463.61
2024-03-10T10:30:45.932Z,99465.06
2024-03-10T10:33:17.129Z,99470.85
2024-03-10T10:35:48.382Z,99467.01
2024-03-10T10:38:21.469Z,99470.70
2024-03-10T10:40:53.458Z,99479.52
2024-03-10T10:43:25.148Z,99484.84
2024-03-10T10:45:56.427Z,99488.56
2024-03-10T10:48:29.395Z,99497.20
2024-03-10T10:51:01.930Z,99506.83
2024-03-10T10:53:33.848Z,99509.77
2024-03-10T10:56:05.996Z,99521.50
2024-03-10T10:58:37.138Z,99533.81
2024-03-10T11:01:09.077Z,99537.59
2024-03-10T11:03:41.689Z,99541.14
2024-03-10T11:06:39.916Z,99537.58
2024-03-10T11:09:17.040Z,99530.53
2024-03-10T11:11:53.366Z,99524.00
2024-03-10T11:14:29.088Z,99533.73
2024-03-10T11:17:15.021Z,99542.83
2024-03-10T11:19:47.762Z,99553.93
2024-03-10T11:22:26.430Z,99561.03
2024-03-10T11:25:13.006Z,99563.54
2024-03-10T11:27:46.269Z,99556.02
2024-03-10T11:30:46.294Z,99558.79
2024-03-10T11:33:22.789Z,99578.70
2024-03-10T11:35:55.713Z,99581.20
2024-03-10T11:38:27.775Z,99576.88
2024-03-10T11:41:09.920Z,99559.98
2024-03-10T11:43:43.321Z,99542.83
2024-03-10T11:46:22.293Z,99534.33
2024-03-10T11:48:54.463Z,99537.27
2024-03-10T11:51:27.430Z,99522.13
2024-03-10T11:53:58.330Z,99509.67
2024-03-10T11:56:30.753Z,99508.81
2024-03-10T11:59:05.247Z,99528.27
2024-03-10T12:01:37.097Z,99544.77
2024-03-10T12:04:10.057Z,99561.43
2024-03-10T12:06:41.498Z,99558.13
2024-03-10T12:09:13.979Z,99538.63
2024-03-10T12:11:47.565Z,99559.15
2024-03-10T12:14:22.546Z,99570.13
2024-03-10T12:16:54.208Z,99576.73
2024-03-10T12:19:26.323Z,99576.80
2024-03-10T12:21:59.133Z,99582.44
2024-03-10T12:24:32.032Z,99592.02
2024-03-10T12:27:08.674Z,99587.74
2024-03-10T12:29:49.313Z,99585.52
2024-03-10T12:32:24.361Z,99591.69
2024-03-10T12:34:55.812Z,99588.53
2024-03-10T12:37:26.846Z,99587.72
2024-03-10T12:40:00.829Z,99587.73
2024-03-10T12:42:36.218Z,99588.75
2024-03-10T12:45:12.165Z,99591.47
2024-03-10T12:47:43.822Z,99586.33
2024-03-10T12:50:15.517Z,99587.45
2024-03-10T12:52:47.555Z,99587.32
2024-03-10T12:55:19.727Z,99593.11
2024-03-10T12:57:51.149Z,99594.20
2024-03-10T13:00:30.581Z,99593.98
2024-03-10T13:03:01.987Z,99594.89
2024-03-10T13:05:33.536Z,99607.21
2024-03-10T13:08:05.917Z,99616.21
2024-03-10T13:10:37.148Z,99618.20
2024-03-10T13:13:09.275Z,99616.59
2024-03-10T13:15:41.602Z,99617.31
2024-03-10T13:18:14.529Z,99615.80
2024-03-10T13:20:46.151Z,99616.95
2024-03-10T13:23:17.539Z,99611.83
2024-03-10T13:25:48.917Z,99613.47
2024-03-10T13:28:23.516Z,99613.73
2024-03-10T13:30:54.714Z,99618.27
2024-03-10T13:33:26.961Z,99621.73
2024-03-10T13:36:06.670Z,99630.91
2024-03-10T13:38:45.078Z,99634.75
2024-03-10T13:41:16.400Z,99641.00
2024-03-10T13:43:47.883Z,99641.31
2024-03-10T13:46:19.337Z,99642.96
2024-03-10T13:48:50.578Z,99647.08
2024-03-10T13:51:22.077Z,99649.42
2024-03-10T13:53:53.227Z,99657.61
2024-03-10T13:56:25.457Z,99669.52
2024-03-10T13:58:57.275Z,99677.24
2024-03-10T14:01:28.392Z,99684.98
2024-03-10T14:03:59.593Z,99668.95
2024-03-10T14:06:32.770Z,99627.33
2024-03-10T14:09:04.157Z,99596.66
2024-03-10T14:11:35.416Z,99557.62
2024-03-10T14:14:08.156Z,99548.38
2024-03-10T14:16:39.525Z,99567.05
2024-03-10T14:19:10.454Z,99598.73
2024-03-10T14:21:41.790Z,99624.19
2024-03-10T14:24:12.835Z,99626.87
2024-03-10T14:26:45.017Z,99620.96
2024-03-10T14:29:16.764Z,99623.88
2024-03-10T14:31:48.592Z,99628.70
2024-03-10T14:34:20.036Z,99631.14
2024-03-10T14:36:51.970Z,99631.78
2024-03-10T14:39:24.538Z,99636.01
2024-03-10T14:41:56.414Z,99634.52
2024-03-10T14:44:27.545Z,99636.46
2024-03-10T14:46:58.860Z,99634.58
2024-03-10T14:49:29.928Z,99633.55
2024-03-10T14:52:01.611Z,99632.65
2024-03-10T14:54:32.570Z,99633.59
2024-03-10T14:57:45.299Z,99639.17
2024-03-10T15:00:35.462Z,99642.39
2024-03-10T15:03:09.224Z,99650.09
2024-03-10T15:05:43.552Z,99648.99
2024-03-10T15:08:17.230Z,99652.48
2024-03-10T15:10:53.183Z,99656.59
2024-03-10T15:13:26.417Z,99655.21
2024-03-10T15:15:59.030Z,99660.67
2024-03-10T15:18:32.569Z,99662.31
2024-03-10T15:21:05.799Z,99663.17
2024-03-10T15:23:37.323Z,99663.81
2024-03-10T15:26:08.961Z,99666.67
2024-03-10T15:28:40.085Z,99667.41
2024-03-10T15:31:11.461Z,99672.81
2024-03-10T15:33:42.479Z,99677.19
2024-03-10T15:36:16.926Z,99677.91
2024-03-10T15:38:50.351Z,99681.14
2024-03-10T15:41:22.187Z,99679.61
2024-03-10T15:43:53.478Z,99682.30
2024-03-10T15:46:24.509Z,99684.17
2024-03-10T15:48:55.478Z,99688.70
2024-03-10T15:51:26.431Z,99691.91
2024-03-10T15:53:57.283Z,99694.05
2024-03-10T15:56:28.428Z,99696.71
2024-03-10T15:58:59.369Z,99697.40
2024-03-10T16:01:31.598Z,99695.99
2024-03-10T16:04:06.603Z,99700.92
2024-03-10T16:06:37.674Z,99707.16
2024-03-10T16:09:12.332Z,99706.09
2024-03-10T16:11:46.222Z,99708.61
2024-03-10T16:14:19.046Z,99709.64
2024-03-10T16:16:51.330Z,99710.26
2024-03-10T16:19:23.489Z,99713.27
2024-03-10T16:21:55.608Z,99711.68
2024-03-10T16:24:30.363Z,99710.93
2024-03-10T16:27:01.395Z,99709.98
2024-03-10T16:29:32.285Z,99711.55
2024-03-10T16:32:03.164Z,99715.50
2024-03-10T16:34:34.163Z,99716.64
2024-03-10T16:37:06.650Z,99717.56
2024-03-10T16:39:37.483Z,99721.22
2024-03-10T16:42:10.329Z,99724.45
2024-03-10T16:44:44.023Z,99725.21
2024-03-10T16:47:14.903Z,99733.23
2024-03-10T16:49:50.980Z,99737.92
2024-03-10T16:52:22.001Z,99740.19
2024-03-10T16:54:53.036Z,99737.46
2024-03-10T16:57:24.013Z,99741.59
2024-03-10T16:59:54.886Z,99741.29
2024-03-10T17:02:26.314Z,99739.84
2024-03-10T17:04:57.348Z,99750.48
2024-03-10T17:07:28.545Z,99758.88
2024-03-10T17:09:59.576Z,99756.83
2024-03-10T17:12:31.179Z,99760.02
2024-03-10T17:15:02.421Z,99766.39
2024-03-10T17:17:33.706Z,99766.02
2024-03-10T17:20:07.513Z,99766.17
2024-03-10T17:22:39.007Z,99767.53
2024-03-10T17:25:11.625Z,99770.77
2024-03-10T17:27:44.197Z,99774.89
2024-03-10T17:30:20.413Z,99776.54
2024-03-10T17:32:55.534Z,99778.96
2024-03-10T17:35:27.841Z,99776.62
2024-03-10T17:37:59.997Z,99776.52
2024-03-10T17:40:31.381Z,99778.73
2024-03-10T17:43:02.591Z,99781.33
2024-03-10T17:45:39.021Z,99780.96
2024-03-10T17:48:12.480Z,99783.81
2024-03-10T17:50:45.266Z,99786.55
2024-03-10T17:53:16.444Z,99789.51
2024-03-10T17:55:50.211Z,99792.50
2024-03-10T17:58:21.476Z,99796.45
2024-03-10T18:00:56.890Z,99800.15
2024-03-10T18:03:28.360Z,99805.52
2024-03-10T18:06:00.289Z,99811.45
2024-03-10T18:08:31.329Z,99813.80
2024-03-10T18:11:06.343Z,99815.10
2024-03-10T18:13:37.108Z,99821.09
2024-03-10T18:16:11.872Z,99827.83
2024-03-10T18:18:43.193Z,99829.84
2024-03-10T18:21:14.383Z,99835.59
2024-03-10T18:23:45.904Z,99838.71
2024-03-10T18:26:17.708Z,99844.52
2024-03-10T18:28:49.462Z,99851.76
2024-03-10T18:31:21.116Z,99861.70
2024-03-10T18:33:52.875Z,99869.05
2024-03-10T18:36:24.000Z,99871.51
2024-03-10T18:38:55.789Z,99873.90
2024-03-10T18:41:26.846Z,99876.61
2024-03-10T18:43:58.988Z,99878.46
2024-03-10T18:46:30.197Z,99884.64
2024-03-10T18:49:00.975Z,99886.98
2024-03-10T18:51:32.115Z,99886.12
2024-03-10T18:54:03.516Z,99895.91
2024-03-10T18:56:34.898Z,99901.23
2024-03-10T18:59:09.517Z,99908.05
2024-03-10T19:01:41.036Z,99912.42
2024-03-10T19:04:13.886Z,99915.95
2024-03-10T19:06:45.593Z,99923.46
2024-03-10T19:09:19.552Z,99927.06
2024-03-10T19:11:51.010Z,99933.06
2024-03-10T19:14:21.817Z,99944.30
2024-03-10T19:16:52.842Z,99945.88
2024-03-10T19:19:23.794Z,99949.90
2024-03-10T19:21:54.648Z,99953.28
2024-03-10T19:24:25.428Z,99953.79
2024-03-10T19:26:56.435Z,99957.60
2024-03-10T19:29:28.266Z,99965.48
2024-03-10T19:31:59.909Z,99972.49
2024-03-10T19:34:32.604Z,99973.01
2024-03-10T19:37:04.108Z,99980.57
2024-03-10T19:39:35.260Z,99986.67
2024-03-10T19:42:07.389Z,99984.54
2024-03-10T19:44:38.389Z,99989.99
2024-03-10T19:47:12.435Z,99994.33
2024-03-10T19:49:45.230Z,99996.52
2024-03-10T19:52:19.323Z,99997.98
2024-03-10T19:54:50.522Z,99998.09
2024-03-10T19:57:22.705Z,100003.34
2024-03-10T19:59:53.945Z,100004.75
2024-03-10T20:02:27.673Z,100005.69
2024-03-10T20:05:00.984Z,100013.10
2024-03-10T20:07:32.810Z,100012.80
2024-03-10T20:10:04.230Z,100016.98
2024-03-10T20:12:37.759Z,100025.27
2024-03-10T20:15:10.982Z,100026.45
2024-03-10T20:17:43.920Z,100028.12
2024-03-10T20:20:20.756Z,100028.12
2024-03-10T20:22:51.677Z,100023.42
2024-03-10T20:25:22.911Z,100023.80
2024-03-10T20:27:57.260Z,100026.58
2024-03-10T20:30:30.623Z,100022.64
2024-03-10T20:33:01.938Z,100021.10
2024-03-10T20:35:34.312Z,100018.41
2024-03-10T20:38:05.923Z,100021.45
2024-03-10T20:40:36.749Z,100022.45
2024-03-10T20:43:08.365Z,100018.69
2024-03-10T20:45:39.405Z,100026.64
2024-03-10T20:48:11.427Z,100032.45
2024-03-10T20:50:42.452Z,100039.21
2024-03-10T20:53:13.388Z,100041.81
2024-03-10T20:55:45.309Z,100048.36
2024-03-10T20:58:16.282Z,100050.98
2024-03-10T21:00:47.239Z,100057.17
2024-03-10T21:03:18.169Z,100057.13
2024-03-10T21:05:49.889Z,100061.48
2024-03-10T21:08:20.832Z,100061.51
2024-03-10T21:10:51.888Z,100059.11
2024-03-10T21:13:22.912Z,100066.35
2024-03-10T21:15:53.691Z,100068.63
2024-03-10T21:18:24.698Z,100063.55
2024-03-10T21:20:56.992Z,100069.23
2024-03-10T21:23:28.366Z,100070.35
2024-03-10T21:26:00.781Z,100070.57
2024-03-10T21:28:32.124Z,100072.44
2024-03-10T21:31:04.512Z,100074.29
2024-03-10T21:33:35.836Z,100073.70
2024-03-10T21:36:07.509Z,100074.34
2024-03-10T21:38:38.903Z,100071.80
2024-03-10T21:41:09.792Z,100071.71
2024-03-10T21:43:40.900Z,100088.13
2024-03-10T21:46:12.169Z,100094.74
2024-03-10T21:48:43.005Z,100092.52
2024-03-10T21:51:13.691Z,100099.35
2024-03-10T21:53:44.703Z,100095.67
2024-03-10T21:56:16.269Z,100101.69
2024-03-10T21:58:48.739Z,100110.65
2024-03-10T22:01:19.581Z,100109.97
2024-03-10T22:03:50.345Z,100120.29
2024-03-10T22:06:21.087Z,100125.38
2024-03-10T22:08:52.129Z,100126.54
2024-03-10T22:11:24.155Z,100124.94
2024-03-10T22:13:58.648Z,100129.17
2024-03-10T22:16:30.665Z,100127.17
2024-03-10T22:19:01.492Z,100128.97
2024-03-10T22:21:32.904Z,100128.36
2024-03-10T22:24:03.849Z,100129.24
2024-03-10T22:26:36.718Z,100139.48
2024-03-10T22:29:08.385Z,100142.92
2024-03-10T22:31:39.653Z,100146.23
2024-03-10T22:34:10.432Z,100149.02
2024-03-10T22:36:41.556Z,100146.35
2024-03-10T22:39:14.785Z,100153.14
2024-03-10T22:41:46.377Z,100148.73
2024-03-10T22:44:17.330Z,100149.04
2024-03-10T22:46:48.298Z,100148.23
2024-03-10T22:49:19.159Z,100141.29
2024-03-10T22:51:50.520Z,100140.70
2024-03-10T22:54:21.429Z,100138.54
2024-03-10T22:56:52.900Z,100135.51
2024-03-10T22:59:24.654Z,100136.05
2024-03-10T23:01:56.060Z,100130.60
2024-03-10T23:04:29.001Z,100130.36
2024-03-10T23:07:00.706Z,100132.54
2024-03-10T23:09:32.578Z,100138.11
2024-03-10T23:12:04.232Z,100135.08
2024-03-10T23:14:38.428Z,100131.09
2024-03-10T23:17:11.111Z,100122.13
2024-03-10T23:19:43.096Z,100107.98
2024-03-10T23:22:14.746Z,100100.95
2024-03-10T23:24:46.094Z,100097.71
2024-03-10T23:27:18.638Z,100095.67
2024-03-10T23:29:50.289Z,100099.92
2024-03-10T23:32:21.749Z,100099.79
2024-03-10T23:34:52.799Z,100102.42
2024-03-10T23:37:23.993Z,100101.33
2024-03-10T23:39:54.825Z,100099.84
2024-03-10T23:42:27.230Z,100099.46
2024-03-10T23:44:59.483Z,100098.19
2024-03-10T23:47:30.705Z,100096.02
2024-03-10T23:50:01.591Z,100094.86
2024-03-10T23:52:32.609Z,100096.78
2024-03-10T23:55:03.476Z,100091.31
2024-03-10T23:57:34.395Z,100092.85
